Time;durP1;ratioP1;P1;durP2;ratioP2;P2;SDS_P1;SDS_P2;PMS_P1;PMS_P2;Temp;Humidity;BMP_temperature;BMP_pressure;BME280_temperature;BME280_humidity;BME280_pressure;Samples;Min_cycle;Max_cycle;Signal;HPM_P1;HPM_P2
2021/10/23 00:02:21;;;;;;;0.40;0.30;;;;;;;6.68;96.55;101180.03;5055406;28;20489;-75
2021/10/23 00:04:47;;;;;;;0.40;0.30;;;;;;;6.67;97.41;101183.81;5055415;28;20446;-75
2021/10/23 00:07:14;;;;;;;0.40;0.20;;;;;;;6.65;97.47;101196.72;5055138;28;20458;-75
2021/10/23 00:09:40;;;;;;;0.40;0.30;;;;;;;6.65;96.83;101197.53;5055282;28;20442;-75
2021/10/23 00:12:08;;;;;;;0.40;0.30;;;;;;;6.65;97.39;101197.53;5055249;28;20442;-75
2021/10/23 00:14:34;;;;;;;0.40;0.30;;;;;;;6.63;96.91;101206.94;5054931;28;20789;-75
2021/10/23 00:17:02;;;;;;;0.40;0.30;;;;;;;6.59;97.52;101212.00;5056369;28;20469;-75
2021/10/23 00:19:29;;;;;;;0.40;0.30;;;;;;;6.60;96.84;101204.75;5054957;28;20646;-75
2021/10/23 00:21:55;;;;;;;0.40;0.30;;;;;;;6.56;97.16;101209.84;5054972;28;20482;-75
2021/10/23 00:24:21;;;;;;;0.40;0.30;;;;;;;6.57;97.41;101212.28;5055061;28;20449;-75
2021/10/23 00:26:48;;;;;;;0.40;0.30;;;;;;;6.58;96.89;101213.91;5054599;28;21026;-75
2021/10/23 00:29:14;;;;;;;0.40;0.30;;;;;;;6.57;98.04;101214.16;5054987;28;20447;-75
2021/10/23 00:31:41;;;;;;;0.40;0.30;;;;;;;6.58;98.00;101215.78;5054873;28;20449;-75
2021/10/23 00:34:09;;;;;;;0.40;0.30;;;;;;;6.52;97.85;101217.63;5054839;28;20446;-75
2021/10/23 00:36:35;;;;;;;0.40;0.30;;;;;;;6.45;98.23;101217.03;5054742;28;20442;-75
2021/10/23 00:39:02;;;;;;;0.40;0.27;;;;;;;6.48;98.46;101227.28;5054758;28;20442;-75
2021/10/23 00:41:28;;;;;;;0.40;0.20;;;;;;;6.49;97.70;101230.78;5054602;28;20489;-75
2021/10/23 00:43:54;;;;;;;0.40;0.30;;;;;;;6.47;98.12;101232.94;5054635;28;20438;-75
2021/10/23 00:46:21;;;;;;;0.40;0.30;;;;;;;6.42;98.58;101227.50;5054557;28;20469;-75
2021/10/23 00:48:47;;;;;;;0.40;0.30;;;;;;;6.44;98.03;101234.25;5054838;28;20434;-76
2021/10/23 00:51:16;;;;;;;0.40;0.30;;;;;;;6.48;97.28;101237.25;5054504;28;20439;-75
2021/10/23 00:53:43;;;;;;;0.40;0.30;;;;;;;6.51;97.65;101239.44;5054549;28;20505;-77
2021/10/23 00:56:10;;;;;;;0.40;0.30;;;;;;;6.48;97.26;101239.94;5055121;28;20450;-77
2021/10/23 00:58:37;;;;;;;0.40;0.30;;;;;;;6.50;97.51;101252.03;5055712;28;20473;-78
2021/10/23 01:01:03;;;;;;;0.40;0.30;;;;;;;6.40;98.07;101257.34;5054917;28;20450;-77
2021/10/23 01:03:30;;;;;;;0.40;0.20;;;;;;;6.43;97.65;101259.53;5054495;28;20434;-78
2021/10/23 01:05:57;;;;;;;0.40;0.30;;;;;;;6.41;97.38;101256.28;5055302;28;20446;-77
2021/10/23 01:08:25;;;;;;;0.40;0.30;;;;;;;6.43;97.67;101259.53;5055755;28;20461;-77
2021/10/23 01:10:52;;;;;;;0.40;0.27;;;;;;;6.43;98.97;101262.22;5057655;28;20952;-77
2021/10/23 01:13:18;;;;;;;0.40;0.30;;;;;;;6.43;98.29;101269.50;5056258;28;20488;-77
2021/10/23 01:15:45;;;;;;;0.40;0.20;;;;;;;6.42;98.18;101268.69;5054064;28;20511;-75
2021/10/23 01:18:11;;;;;;;0.40;0.20;;;;;;;6.46;98.57;101269.81;5053884;28;20489;-76
2021/10/23 01:20:39;;;;;;;0.40;0.30;;;;;;;6.45;97.75;101272.72;5053205;28;20958;-76
2021/10/23 01:23:05;;;;;;;0.40;0.30;;;;;;;6.43;97.83;101280.25;5053786;28;20485;-76
2021/10/23 01:25:34;;;;;;;0.40;0.30;;;;;;;6.47;97.58;101278.69;5053838;28;20446;-76
2021/10/23 01:28:02;;;;;;;0.40;0.30;;;;;;;6.36;98.48;101282.34;5053761;28;20524;-76
2021/10/23 01:30:29;;;;;;;0.40;0.20;;;;;;;6.39;97.98;101282.66;5053780;28;20457;-76
2021/10/23 01:32:57;;;;;;;0.40;0.30;;;;;;;6.44;98.52;101284.56;5053443;28;20825;-75
2021/10/23 01:35:24;;;;;;;0.40;0.30;;;;;;;6.46;98.16;101290.50;5053714;28;20449;-75
2021/10/23 01:37:54;;;;;;;0.40;0.30;;;;;;;6.46;98.33;101298.56;5053577;28;20462;-76
2021/10/23 01:40:28;;;;;;;0.40;0.20;;;;;;;6.38;98.01;101299.88;5053680;28;20525;-74
2021/10/23 01:42:55;;;;;;;0.40;0.30;;;;;;;6.39;98.36;101296.09;5053539;28;20466;-72
2021/10/23 01:45:22;;;;;;;0.40;0.23;;;;;;;6.41;98.21;101296.63;5053522;28;20442;-72
2021/10/23 01:47:48;;;;;;;0.40;0.20;;;;;;;6.42;98.87;101302.81;5053439;28;20481;-72
2021/10/23 01:50:17;;;;;;;0.40;0.27;;;;;;;6.42;98.61;101297.44;5053491;28;20434;-72
2021/10/23 01:52:43;;;;;;;0.40;0.30;;;;;;;6.44;98.97;101316.84;5053638;28;20533;-74
2021/10/23 01:55:12;;;;;;;0.40;0.30;;;;;;;6.37;98.03;101308.97;5053394;28;20995;-76
2021/10/23 01:57:39;;;;;;;0.40;0.30;;;;;;;6.41;98.73;101310.09;5053559;28;20459;-75
2021/10/23 02:00:07;;;;;;;0.40;0.30;;;;;;;6.44;98.98;101314.16;5053240;28;20962;-75
2021/10/23 02:02:34;;;;;;;0.40;0.30;;;;;;;6.44;98.57;101324.94;5053208;28;20489;-76
2021/10/23 02:05:00;;;;;;;0.40;0.30;;;;;;;6.40;99.19;101321.94;5053236;28;20458;-76
2021/10/23 02:07:27;;;;;;;0.40;0.30;;;;;;;6.40;99.55;101324.63;5053195;28;20837;-76
2021/10/23 02:09:53;;;;;;;0.40;0.30;;;;;;;6.44;99.31;101324.94;5052889;28;20959;-75
2021/10/23 02:12:21;;;;;;;0.40;0.30;;;;;;;6.45;99.42;101324.66;5053184;28;20441;-76
2021/10/23 02:14:47;;;;;;;0.40;0.30;;;;;;;6.46;99.17;101322.78;5052844;28;20974;-76
2021/10/23 02:17:14;;;;;;;0.40;0.27;;;;;;;6.49;99.24;101327.66;5053045;28;20474;-76
2021/10/23 02:19:40;;;;;;;0.40;0.30;;;;;;;6.46;98.78;101322.78;5052950;28;20457;-76
2021/10/23 02:22:07;;;;;;;0.40;0.20;;;;;;;6.51;98.84;101326.34;5052965;28;20488;-76
2021/10/23 02:24:33;;;;;;;0.40;0.30;;;;;;;6.48;99.06;101336.81;5053086;28;20454;-76
2021/10/23 02:27:00;;;;;;;0.40;0.30;;;;;;;6.46;99.29;101330.84;5053145;28;20470;-74
2021/10/23 02:29:28;;;;;;;0.40;0.30;;;;;;;6.48;98.99;101348.38;5053029;28;20442;-76
2021/10/23 02:31:54;;;;;;;0.40;0.30;;;;;;;6.47;98.47;101348.66;5054132;28;20438;-76
2021/10/23 02:34:21;;;;;;;0.40;0.30;;;;;;;6.44;98.31;101355.34;5057101;28;20496;-75
2021/10/23 02:36:47;;;;;;;0.40;0.30;;;;;;;6.36;98.84;101349.59;5057175;28;20462;-76
2021/10/23 02:39:14;;;;;;;0.50;0.40;;;;;;;6.38;98.95;101356.38;5056985;28;20453;-76
2021/10/23 02:41:40;;;;;;;0.40;0.30;;;;;;;6.37;98.97;101354.72;5056863;28;20442;-76
2021/10/23 02:44:06;;;;;;;0.40;0.30;;;;;;;6.39;99.26;101355.28;5056626;28;20936;-76
2021/10/23 02:46:34;;;;;;;0.40;0.20;;;;;;;6.31;99.07;101361.94;5056819;28;20452;-76
2021/10/23 02:49:01;;;;;;;0.40;0.20;;;;;;;6.35;98.76;101359.56;5056521;28;20450;-75
2021/10/23 02:51:27;;;;;;;0.40;0.27;;;;;;;6.36;98.80;101369.25;5056761;28;20445;-75
2021/10/23 02:53:53;;;;;;;0.40;0.30;;;;;;;6.42;98.61;101373.63;5056684;28;20438;-75
2021/10/23 02:56:20;;;;;;;0.40;0.30;;;;;;;6.41;98.42;101382.75;5056654;28;20446;-76
2021/10/23 02:58:46;;;;;;;0.40;0.30;;;;;;;6.41;98.65;101381.94;5056614;28;20445;-75
2021/10/23 03:01:13;;;;;;;0.40;0.30;;;;;;;6.37;99.27;101395.06;5056611;28;20463;-75
2021/10/23 03:03:41;;;;;;;0.40;0.20;;;;;;;6.35;98.71;101385.66;5056446;28;20477;-76
2021/10/23 03:06:07;;;;;;;0.40;0.30;;;;;;;6.32;98.93;101387.75;5056545;28;20469;-76
2021/10/23 03:08:34;;;;;;;0.40;0.30;;;;;;;6.37;99.27;101391.56;5056052;28;20998;-76
2021/10/23 03:11:00;;;;;;;0.40;0.30;;;;;;;6.41;99.04;101395.38;5056385;28;20450;-76
2021/10/23 03:13:27;;;;;;;0.40;0.30;;;;;;;6.44;99.19;101392.19;5056367;28;20469;-76
2021/10/23 03:15:55;;;;;;;0.40;0.30;;;;;;;6.44;99.46;101384.94;5056357;28;20442;-76
2021/10/23 03:18:22;;;;;;;0.40;0.23;;;;;;;6.49;98.45;101382.28;5056220;28;20543;-76
2021/10/23 03:20:50;;;;;;;0.40;0.20;;;;;;;6.47;98.46;101389.81;5056284;28;20447;-76
2021/10/23 03:23:17;;;;;;;0.40;0.30;;;;;;;6.45;98.40;101380.38;5056173;28;20481;-76
2021/10/23 03:25:44;;;;;;;0.40;0.30;;;;;;;6.38;99.73;101375.19;5056252;28;20447;-76
2021/10/23 03:28:11;;;;;;;0.40;0.20;;;;;;;6.42;98.39;101389.78;5056252;28;20458;-76
2021/10/23 03:30:37;;;;;;;0.40;0.20;;;;;;;6.44;97.97;101392.19;5056410;28;20442;-77
2021/10/23 03:33:04;;;;;;;0.40;0.30;;;;;;;6.45;98.03;101383.88;5056367;28;20446;-76
2021/10/23 03:35:31;;;;;;;0.40;0.30;;;;;;;6.45;97.75;101399.19;5055817;28;20788;-76
2021/10/23 03:37:59;;;;;;;0.40;0.30;;;;;;;6.46;97.11;101401.66;5056029;28;20473;-76
2021/10/23 03:40:26;;;;;;;0.40;0.20;;;;;;;6.45;97.50;101404.59;5055535;28;20944;-76
2021/10/23 03:42:52;;;;;;;0.40;0.20;;;;;;;6.45;97.24;101400.00;5055176;28;20478;-76
2021/10/23 03:45:19;;;;;;;0.40;0.20;;;;;;;6.44;97.38;101411.03;5055971;28;20442;-76
2021/10/23 03:47:45;;;;;;;0.40;0.30;;;;;;;6.44;96.98;101421.81;5055786;28;20466;-77
2021/10/23 03:50:13;;;;;;;0.40;0.30;;;;;;;6.39;97.15;101427.94;5055784;28;20445;-77
2021/10/23 03:52:40;;;;;;;0.40;0.27;;;;;;;6.36;97.30;101435.69;5055337;28;20434;-76
2021/10/23 03:55:10;;;;;;;0.40;0.30;;;;;;;6.30;97.88;101432.16;5055640;28;20450;-76
2021/10/23 03:57:37;;;;;;;0.40;0.30;;;;;;;6.40;97.69;101447.59;5055997;28;20561;-76
2021/10/23 04:00:04;;;;;;;0.40;0.20;;;;;;;6.50;97.63;101445.00;5055540;28;20453;-75
2021/10/23 04:02:31;;;;;;;0.40;0.30;;;;;;;6.56;97.60;101446.69;5055409;28;20482;-74
2021/10/23 04:04:57;;;;;;;0.40;0.20;;;;;;;6.58;98.26;101436.47;5055126;28;20940;-74
2021/10/23 04:07:24;;;;;;;0.40;0.30;;;;;;;6.67;97.11;101445.72;5055293;28;20874;-75
2021/10/23 04:09:50;;;;;;;0.40;0.30;;;;;;;6.66;97.20;101446.00;5055166;28;20442;-75
2021/10/23 04:12:18;;;;;;;0.40;0.30;;;;;;;6.70;96.63;101441.72;5055309;28;20442;-75
2021/10/23 04:14:44;;;;;;;0.40;0.30;;;;;;;6.70;96.22;101453.31;5055226;28;20446;-75
2021/10/23 04:17:11;;;;;;;0.40;0.30;;;;;;;6.70;96.79;101450.63;5054820;28;20998;-74
2021/10/23 04:19:37;;;;;;;0.40;0.30;;;;;;;6.72;96.28;101458.44;5054711;28;20963;-75
2021/10/23 04:22:04;;;;;;;0.40;0.30;;;;;;;6.65;96.53;101455.94;5055120;28;20905;-75
2021/10/23 04:24:30;;;;;;;0.40;0.30;;;;;;;6.60;95.94;101461.28;5054981;28;20486;-74
2021/10/23 04:26:57;;;;;;;0.40;0.30;;;;;;;6.61;96.90;101454.81;5054891;28;20466;-75
2021/10/23 04:29:24;;;;;;;0.40;0.30;;;;;;;6.62;96.54;101463.72;5054986;28;20446;-75
2021/10/23 04:31:51;;;;;;;0.40;0.30;;;;;;;6.58;96.23;101466.91;5054758;28;20517;-74
2021/10/23 04:34:17;;;;;;;0.40;0.20;;;;;;;6.61;96.11;101476.38;5054863;28;20446;-74
2021/10/23 04:36:44;;;;;;;0.40;0.30;;;;;;;6.53;96.88;101477.63;5054720;28;20525;-75
2021/10/23 04:39:10;;;;;;;0.40;0.30;;;;;;;6.45;96.84;101483.44;5054768;28;20439;-75
2021/10/23 04:41:37;;;;;;;0.40;0.30;;;;;;;6.44;97.30;101478.31;5054704;28;20446;-74
2021/10/23 04:44:04;;;;;;;0.40;0.30;;;;;;;6.42;97.90;101465.13;5054622;28;20485;-74
2021/10/23 04:46:32;;;;;;;0.40;0.23;;;;;;;6.43;97.23;101471.31;5054589;28;20448;-75
2021/10/23 04:48:59;;;;;;;0.40;0.20;;;;;;;6.38;97.87;101468.56;5054527;28;20442;-75
2021/10/23 04:51:25;;;;;;;0.40;0.20;;;;;;;6.37;97.66;101466.91;5054256;28;20446;-75
2021/10/23 04:53:52;;;;;;;0.40;0.30;;;;;;;6.29;97.65;101460.13;5053640;28;20944;-75
2021/10/23 04:56:19;;;;;;;0.40;0.23;;;;;;;6.29;98.13;101462.81;5053956;28;20442;-75
2021/10/23 04:58:46;;;;;;;0.40;0.30;;;;;;;6.27;98.12;101460.34;5054379;28;20451;-75
2021/10/23 05:01:13;;;;;;;0.40;0.30;;;;;;;6.29;98.50;101469.00;5054566;28;20450;-74
2021/10/23 05:03:40;;;;;;;0.40;0.30;;;;;;;6.30;98.37;101470.63;5054211;28;20486;-75
2021/10/23 05:06:07;;;;;;;0.40;0.20;;;;;;;6.29;98.24;101474.38;5054274;28;20442;-75
2021/10/23 05:08:33;;;;;;;0.40;0.30;;;;;;;6.23;99.38;101472.66;5054133;28;20470;-75
2021/10/23 05:11:00;;;;;;;0.40;0.30;;;;;;;6.25;99.55;101475.94;5054154;28;20834;-75
2021/10/23 05:13:26;;;;;;;0.40;0.20;;;;;;;6.26;98.90;101488.31;5054180;28;20449;-74
2021/10/23 05:15:53;;;;;;;0.40;0.30;;;;;;;6.24;98.79;101481.56;5054059;28;20441;-75
2021/10/23 05:18:19;;;;;;;0.40;0.30;;;;;;;6.22;98.58;101476.44;5053674;28;20998;-74
2021/10/23 05:20:47;;;;;;;0.40;0.30;;;;;;;6.21;98.78;101466.75;5053848;28;20450;-75
2021/10/23 05:23:13;;;;;;;0.40;0.30;;;;;;;6.19;99.26;101474.22;5053883;28;20490;-74
2021/10/23 05:25:40;;;;;;;0.40;0.30;;;;;;;6.19;99.57;101485.00;5053909;28;20540;-74
2021/10/23 05:28:06;;;;;;;0.40;0.20;;;;;;;6.17;99.22;101486.31;5053461;28;20862;-75
2021/10/23 05:30:33;;;;;;;0.40;0.30;;;;;;;6.13;99.78;101491.38;5053840;28;20454;-75
2021/10/23 05:32:59;;;;;;;0.40;0.30;;;;;;;6.15;99.77;101486.56;5053734;28;20438;-74
2021/10/23 05:35:25;;;;;;;0.40;0.20;;;;;;;6.13;100.00;101486.00;5053457;28;20936;-75
2021/10/23 05:37:53;;;;;;;0.40;0.30;;;;;;;6.05;99.60;101494.50;5053670;28;20484;-75
2021/10/23 05:40:20;;;;;;;0.40;0.30;;;;;;;6.01;99.19;101502.22;5053931;28;20446;-72
2021/10/23 05:42:46;;;;;;;0.40;0.30;;;;;;;6.05;99.73;101502.56;5053201;28;21009;-72
2021/10/23 05:45:13;;;;;;;0.40;0.20;;;;;;;6.06;99.57;101496.94;5053797;28;20442;-74
2021/10/23 05:47:39;;;;;;;0.40;0.30;;;;;;;6.05;100.00;101498.00;5053501;28;20461;-71
2021/10/23 05:50:08;;;;;;;0.40;0.20;;;;;;;6.06;99.74;101505.03;5053417;28;20449;-72
2021/10/23 05:52:34;;;;;;;0.40;0.30;;;;;;;6.06;99.62;101504.19;5053348;28;21028;-73
2021/10/23 05:55:02;;;;;;;0.40;0.20;;;;;;;6.05;99.25;101499.88;5053372;28;20445;-72
2021/10/23 05:57:28;;;;;;;0.40;0.20;;;;;;;6.02;99.02;101498.50;5053302;28;20481;-73
2021/10/23 05:59:55;;;;;;;0.40;0.27;;;;;;;5.99;99.97;101503.56;5053333;28;20457;-72
2021/10/23 06:02:25;;;;;;;0.40;0.20;;;;;;;6.00;100.00;101513.25;5053307;28;20807;-72
2021/10/23 06:04:53;;;;;;;0.40;0.30;;;;;;;5.97;100.00;101519.13;5053147;28;20486;-72
2021/10/23 06:07:20;;;;;;;0.40;0.30;;;;;;;5.99;100.00;101525.06;5052983;28;20469;-72
2021/10/23 06:09:47;;;;;;;0.40;0.30;;;;;;;6.02;100.00;101527.25;5053281;28;20446;-72
2021/10/23 06:12:14;;;;;;;0.40;0.30;;;;;;;6.04;100.00;101527.84;5053208;28;20445;-72
2021/10/23 06:14:41;;;;;;;0.40;0.30;;;;;;;6.10;100.00;101544.84;5053132;28;20438;-72
2021/10/23 06:17:07;;;;;;;0.40;0.23;;;;;;;6.12;100.00;101542.75;5054409;28;20462;-72
2021/10/23 06:19:35;;;;;;;0.40;0.30;;;;;;;6.11;100.00;101552.69;5052822;28;20474;-72
2021/10/23 06:22:02;;;;;;;0.40;0.30;;;;;;;6.15;100.00;101559.19;5053170;28;20438;-71
2021/10/23 06:24:28;;;;;;;0.40;0.30;;;;;;;6.15;100.00;101567.25;5053038;28;20485;-72
2021/10/23 06:26:55;;;;;;;0.40;0.27;;;;;;;6.21;99.63;101574.34;5052682;28;20975;-72
2021/10/23 06:29:22;;;;;;;0.40;0.30;;;;;;;6.23;99.47;101571.41;5053038;28;20438;-71
2021/10/23 06:31:49;;;;;;;0.40;0.23;;;;;;;6.27;99.68;101572.53;5053021;28;20446;-71
2021/10/23 06:34:15;;;;;;;0.40;0.30;;;;;;;6.37;99.51;101582.63;5052975;28;20449;-70
2021/10/23 06:36:42;;;;;;;0.40;0.20;;;;;;;6.36;99.57;101586.38;5052823;28;20466;-70
2021/10/23 06:39:08;;;;;;;0.40;0.30;;;;;;;6.43;99.48;101589.72;5052932;28;20442;-70
2021/10/23 06:41:35;;;;;;;0.40;0.20;;;;;;;6.49;98.69;101589.53;5052933;28;20442;-70
2021/10/23 06:44:02;;;;;;;0.40;0.20;;;;;;;6.48;99.20;101592.47;5052501;28;20995;-70
2021/10/23 06:46:30;;;;;;;0.40;0.30;;;;;;;6.52;98.82;101599.00;5052504;28;20936;-71
2021/10/23 06:48:56;;;;;;;0.40;0.27;;;;;;;6.56;98.35;101609.00;5052812;28;20449;-70
2021/10/23 06:51:23;;;;;;;0.40;0.30;;;;;;;6.59;98.07;101613.06;5053047;28;20442;-70
2021/10/23 06:53:55;;;;;;;0.40;0.30;;;;;;;6.58;97.71;101612.25;5052822;28;20444;-71
2021/10/23 06:56:21;;;;;;;0.40;0.20;;;;;;;6.64;97.09;101618.53;5052698;28;20533;-70
2021/10/23 06:58:48;;;;;;;0.40;0.27;;;;;;;6.72;96.86;101626.16;5052776;28;20449;-71
2021/10/23 07:01:14;;;;;;;0.40;0.30;;;;;;;6.79;96.58;101615.22;5052788;28;20442;-70
2021/10/23 07:03:42;;;;;;;0.40;0.30;;;;;;;6.80;96.46;101614.97;5052640;28;20483;-73
2021/10/23 07:06:09;;;;;;;0.40;0.30;;;;;;;6.86;96.27;101620.41;5052701;28;20449;-74
2021/10/23 07:08:35;;;;;;;0.40;0.30;;;;;;;6.91;96.37;101625.88;5052555;28;20489;-73
2021/10/23 07:11:02;;;;;;;0.40;0.30;;;;;;;6.93;95.59;101639.91;5052597;28;20442;-73
2021/10/23 07:13:28;;;;;;;0.40;0.20;;;;;;;6.95;95.44;101652.06;5052669;28;20811;-74
2021/10/23 07:15:55;;;;;;;0.40;0.20;;;;;;;7.00;95.55;101641.34;5052593;28;20446;-73
2021/10/23 07:18:22;;;;;;;0.40;0.20;;;;;;;7.05;95.51;101654.88;5054099;28;20470;-73
2021/10/23 07:20:49;;;;;;;0.40;0.30;;;;;;;7.13;95.49;101645.53;5056680;28;20446;-71
2021/10/23 07:23:16;;;;;;;1.17;1.07;;;;;;;7.24;94.36;101655.34;5056170;28;20442;-68
2021/10/23 07:25:44;;;;;;;0.40;0.20;;;;;;;7.22;93.93;101670.97;5055902;28;20813;-71
2021/10/23 07:28:10;;;;;;;0.40;0.30;;;;;;;7.27;94.31;101673.72;5056066;28;20856;-71
2021/10/23 07:30:37;;;;;;;0.40;0.30;;;;;;;7.38;93.68;101673.84;5056114;28;20446;-71
2021/10/23 07:33:04;;;;;;;0.40;0.30;;;;;;;7.39;94.14;101683.53;5055910;28;20453;-71
2021/10/23 07:35:30;;;;;;;0.40;0.30;;;;;;;7.46;93.57;101682.28;5055996;28;20441;-73
2021/10/23 07:37:58;;;;;;;0.40;0.20;;;;;;;7.50;93.19;101694.19;5056009;28;20469;-72
2021/10/23 07:40:24;;;;;;;0.40;0.20;;;;;;;7.54;92.63;101686.41;5055926;28;20446;-71
2021/10/23 07:42:51;;;;;;;0.40;0.20;;;;;;;7.53;92.83;101692.88;5055905;28;20449;-71
2021/10/23 07:45:17;;;;;;;0.40;0.30;;;;;;;7.62;92.91;101701.34;5055757;28;20486;-72
2021/10/23 07:47:45;;;;;;;0.40;0.30;;;;;;;7.74;92.46;101697.41;5055724;28;20556;-72
2021/10/23 07:50:12;;;;;;;0.40;0.30;;;;;;;7.76;92.06;101708.75;5055996;28;20446;-72
2021/10/23 07:52:40;;;;;;;0.40;0.30;;;;;;;7.84;91.87;101711.00;5055662;28;20446;-72
2021/10/23 07:55:09;;;;;;;0.40;0.20;;;;;;;7.90;91.77;101714.56;5055612;28;20447;-72
2021/10/23 07:57:37;;;;;;;0.40;0.30;;;;;;;7.99;90.48;101720.31;5055541;28;20462;-72
2021/10/23 08:00:05;;;;;;;0.40;0.30;;;;;;;8.00;90.82;101728.13;5055536;28;20438;-72
2021/10/23 08:02:31;;;;;;;0.40;0.30;;;;;;;8.00;90.44;101736.22;5055185;28;20884;-72
2021/10/23 08:04:58;;;;;;;0.40;0.27;;;;;;;7.90;90.83;101727.25;5055391;28;20568;-72
2021/10/23 08:07:24;;;;;;;0.40;0.30;;;;;;;7.93;90.99;101748.31;5055495;28;20537;-72
2021/10/23 08:09:50;;;;;;;0.40;0.30;;;;;;;7.92;90.93;101738.56;5055348;28;20452;-72
2021/10/23 08:12:18;;;;;;;0.40;0.30;;;;;;;7.93;91.44;101741.03;5055030;28;20943;-72
2021/10/23 08:14:45;;;;;;;0.40;0.30;;;;;;;7.99;91.00;101750.00;5055276;28;20441;-72
2021/10/23 08:17:11;;;;;;;0.40;0.30;;;;;;;8.13;90.51;101759.28;5055128;28;20462;-72
2021/10/23 08:19:37;;;;;;;0.40;0.30;;;;;;;8.26;89.83;101753.47;5055031;28;20461;-72
2021/10/23 08:22:04;;;;;;;0.40;0.30;;;;;;;8.39;89.59;101764.97;5055099;28;20466;-72
2021/10/23 08:24:31;;;;;;;0.40;0.30;;;;;;;8.43;88.10;101756.09;5055013;28;20486;-72
2021/10/23 08:26:57;;;;;;;0.40;0.30;;;;;;;8.41;88.75;101765.50;5054787;28;20493;-72
2021/10/23 08:29:25;;;;;;;0.40;0.30;;;;;;;8.45;90.07;101769.31;5054121;28;20955;-72
2021/10/23 08:31:51;;;;;;;0.40;0.30;;;;;;;8.56;88.83;101757.53;5054891;28;20442;-73
2021/10/23 08:34:18;;;;;;;0.40;0.30;;;;;;;8.64;88.94;101780.56;5054879;28;20453;-73
2021/10/23 08:36:45;;;;;;;0.40;0.30;;;;;;;8.66;87.38;101773.81;5054792;28;20528;-73
2021/10/23 08:39:13;;;;;;;0.40;0.30;;;;;;;8.81;86.99;101778.53;5054784;28;20450;-73
2021/10/23 08:41:43;;;;;;;0.40;0.20;;;;;;;8.88;86.79;101786.41;5054715;28;20441;-73
2021/10/23 08:44:12;;;;;;;0.40;0.30;;;;;;;8.95;86.58;101795.09;5054560;28;20481;-73
2021/10/23 08:46:41;;;;;;;0.40;0.30;;;;;;;8.95;86.13;101797.81;5054526;28;20465;-73
2021/10/23 08:49:08;;;;;;;0.40;0.30;;;;;;;9.02;85.93;101796.50;5054665;28;20446;-73
2021/10/23 08:51:35;;;;;;;0.40;0.30;;;;;;;9.07;86.35;101787.59;5054766;28;20442;-73
2021/10/23 08:54:02;;;;;;;0.40;0.20;;;;;;;9.16;85.58;101793.31;5054548;28;20446;-73
2021/10/23 08:56:28;;;;;;;0.40;0.30;;;;;;;9.22;85.34;101795.81;5054451;28;20500;-72
2021/10/23 08:58:55;;;;;;;0.40;0.30;;;;;;;9.26;86.05;101796.91;5054438;28;20442;-73
2021/10/23 09:01:22;;;;;;;0.40;0.30;;;;;;;9.33;85.26;101813.69;5054434;28;20822;-72
2021/10/23 09:03:49;;;;;;;0.40;0.30;;;;;;;9.33;85.45;101807.47;5054250;28;20468;-72
2021/10/23 09:06:28;;;;;;;0.40;0.30;;;;;;;9.40;85.31;101815.38;5053997;28;20965;-72
2021/10/23 09:08:59;;;;;;;0.40;0.30;;;;;;;9.42;86.28;101810.50;5054231;28;20426;-73
2021/10/23 09:11:30;;;;;;;0.40;0.30;;;;;;;9.44;85.48;101819.19;5054188;28;20796;-72
2021/10/23 09:13:56;;;;;;;0.40;0.30;;;;;;;9.43;85.29;101826.47;5054099;28;20449;-73
2021/10/23 09:16:23;;;;;;;0.40;0.30;;;;;;;9.46;85.11;101820.53;5053980;28;20446;-72
2021/10/23 09:18:51;;;;;;;0.40;0.30;;;;;;;9.50;84.38;101831.63;5053770;28;20458;-71
2021/10/23 09:21:19;;;;;;;0.40;0.30;;;;;;;9.51;85.66;101825.16;5053977;28;20485;-72
2021/10/23 09:23:46;;;;;;;0.40;0.30;;;;;;;9.53;84.49;101839.25;5053787;28;20453;-71
2021/10/23 09:26:31;;;;;;;0.40;0.30;;;;;;;9.56;84.00;101838.69;5053751;28;20480;-73
2021/10/23 09:29:17;;;;;;;0.40;0.30;;;;;;;9.65;84.80;101842.56;5053885;28;20419;-72
2021/10/23 09:31:47;;;;;;;0.40;0.30;;;;;;;9.76;83.46;101854.22;5053849;28;20446;-72
2021/10/23 09:34:17;;;;;;;0.40;0.30;;;;;;;9.68;83.25;101850.13;5053776;28;20442;-72
2021/10/23 09:36:48;;;;;;;0.40;0.20;;;;;;;9.59;84.28;101849.81;5053686;28;20454;-72
2021/10/23 09:39:23;;;;;;;0.40;0.30;;;;;;;9.70;83.59;101850.69;5053707;28;20438;-72
2021/10/23 09:42:08;;;;;;;0.40;0.30;;;;;;;9.81;82.81;101852.34;5053047;28;20962;-72
2021/10/23 09:44:35;;;;;;;0.40;0.30;;;;;;;9.85;82.21;101861.56;5053586;28;20473;-72
2021/10/23 09:47:02;;;;;;;0.40;0.30;;;;;;;9.96;82.61;101858.88;5053546;28;20501;-72
2021/10/23 09:49:29;;;;;;;0.40;0.30;;;;;;;10.07;83.80;101876.81;5053591;28;20442;-72
2021/10/23 09:52:17;;;;;;;0.40;0.30;;;;;;;10.21;82.31;101885.25;5053560;28;20442;-72
2021/10/23 09:54:43;;;;;;;0.40;0.30;;;;;;;10.21;82.36;101887.94;5053627;28;20433;-72
2021/10/23 09:57:11;;;;;;;0.40;0.30;;;;;;;10.29;80.92;101885.56;5053651;28;20466;-72
2021/10/23 09:59:39;;;;;;;0.40;0.30;;;;;;;10.35;81.99;101881.78;5053504;28;20446;-72
2021/10/23 10:02:07;;;;;;;0.40;0.30;;;;;;;10.42;81.93;101878.03;5053387;28;20438;-72
2021/10/23 10:04:35;;;;;;;0.40;0.30;;;;;;;10.60;80.22;101880.22;5053342;28;20478;-72
2021/10/23 10:07:04;;;;;;;0.40;0.30;;;;;;;10.72;79.79;101882.69;5053345;28;20904;-72
2021/10/23 10:09:31;;;;;;;0.40;0.30;;;;;;;10.75;79.66;101891.06;5053379;28;20450;-72
2021/10/23 10:11:58;;;;;;;0.40;0.30;;;;;;;10.77;78.38;101899.75;5053271;28;20438;-73
2021/10/23 10:14:28;;;;;;;0.40;0.30;;;;;;;10.88;78.02;101902.44;5053092;28;20932;-72
2021/10/23 10:16:56;;;;;;;0.40;0.30;;;;;;;10.82;77.82;101899.75;5053144;28;20546;-72
2021/10/23 10:19:23;;;;;;;0.40;0.27;;;;;;;10.86;77.69;101903.53;5053148;28;20454;-72
2021/10/23 10:21:52;;;;;;;0.40;0.27;;;;;;;10.88;78.45;101908.69;5053040;28;20849;-72
2021/10/23 10:24:20;;;;;;;0.40;0.30;;;;;;;10.95;76.76;101913.84;5053100;28;20449;-72
2021/10/23 10:27:02;;;;;;;0.40;0.30;;;;;;;10.99;76.31;101907.63;5052939;28;20454;-72
2021/10/23 10:29:38;;;;;;;0.40;0.30;;;;;;;10.99;76.68;101909.53;5052851;28;20952;-73
2021/10/23 10:32:16;;;;;;;0.40;0.30;;;;;;;11.11;76.06;101918.16;5052901;28;20932;-72
2021/10/23 10:35:22;;;;;;;0.40;0.30;;;;;;;11.21;76.88;101909.25;5053157;28;20476;-72
2021/10/23 10:38:12;;;;;;;0.40;0.30;;;;;;;11.26;73.72;101914.66;5052857;28;20472;-73
2021/10/23 10:43:30;;;;;;;0.40;0.30;;;;;;;11.43;71.69;101914.38;5053004;28;20469;-72
2021/10/23 10:45:57;;;;;;;0.40;0.30;;;;;;;11.44;71.79;101918.72;5052469;28;20896;-73
2021/10/23 10:48:40;;;;;;;0.40;0.30;;;;;;;11.55;73.57;101917.59;5052817;28;20462;-72
2021/10/23 10:51:19;;;;;;;0.40;0.30;;;;;;;11.70;72.61;101942.00;5052834;28;20426;-72
2021/10/23 10:54:09;;;;;;;0.40;0.30;;;;;;;11.73;72.12;101933.31;5055046;28;20966;-72
2021/10/23 10:56:49;;;;;;;0.40;0.30;;;;;;;11.79;71.65;101924.06;5056762;28;20426;-72
2021/10/23 10:59:54;;;;;;;0.40;0.30;;;;;;;11.82;70.32;101928.97;5056807;28;20480;-73
2021/10/23 11:02:34;;;;;;;0.40;0.30;;;;;;;11.99;71.07;101930.53;5056868;28;20470;-72
2021/10/23 11:05:19;;;;;;;0.40;0.20;;;;;;;12.57;69.88;101938.94;5056659;28;20543;-73
2021/10/23 11:08:10;;;;;;;0.40;0.30;;;;;;;13.29;66.15;101948.25;5056224;28;20994;-73
2021/10/23 11:10:56;;;;;;;0.40;0.30;;;;;;;13.83;64.57;101947.16;5056570;28;20434;-73
2021/10/23 11:13:24;;;;;;;0.40;0.20;;;;;;;14.46;61.45;101956.22;5056401;28;20449;-72
2021/10/23 11:15:50;;;;;;;0.40;0.30;;;;;;;14.60;60.47;101965.31;5056494;28;20469;-72
2021/10/23 11:18:18;;;;;;;0.40;0.27;;;;;;;14.28;60.05;101964.06;5056294;28;20469;-73
2021/10/23 11:20:44;;;;;;;0.40;0.20;;;;;;;13.73;61.02;101971.78;5056021;28;20453;-76
2021/10/23 11:23:15;;;;;;;0.40;0.30;;;;;;;13.58;61.84;101966.50;5055942;28;20808;-71
2021/10/23 11:25:42;;;;;;;0.40;0.30;;;;;;;13.30;63.82;101973.56;5056214;28;20470;-71
2021/10/23 11:28:11;;;;;;;0.40;0.30;;;;;;;12.72;66.47;101974.22;5056128;28;20502;-72
2021/10/23 11:30:42;;;;;;;0.40;0.30;;;;;;;12.45;67.46;101977.34;5056360;28;20439;-72
2021/10/23 11:33:10;;;;;;;0.40;0.30;;;;;;;13.09;67.48;101976.38;5056162;28;20427;-73
2021/10/23 11:35:39;;;;;;;0.40;0.30;;;;;;;14.25;64.43;101978.28;5056409;28;20454;-72
2021/10/23 11:38:07;;;;;;;0.40;0.20;;;;;;;14.93;59.29;101977.13;5075168;28;20481;-72
2021/10/23 11:40:35;;;;;;;0.40;0.20;;;;;;;14.95;59.15;101983.09;5075951;28;20457;-72